Time;durP1;ratioP1;P1;durP2;ratioP2;P2;SDS_P1;SDS_P2;PMS_P1;PMS_P2;Temp;Humidity;BMP_temperature;BMP_pressure;BME280_temperature;BME280_humidity;BME280_pressure;Samples;Min_cycle;Max_cycle;Signal;HPM_P1;HPM_P2
2024/01/17 00:02:00;;;;;;;8.93;4.35;;;0.80;59.10;;;;;;5090542;28;20801;-77
2024/01/17 00:04:27;;;;;;;7.55;3.90;;;0.70;58.20;;;;;;5095629;28;20417;-77
2024/01/17 00:06:54;;;;;;;8.68;3.97;;;0.70;57.90;;;;;;5076214;28;20419;-77
2024/01/17 00:09:19;;;;;;;8.15;4.00;;;0.70;57.10;;;;;;5097929;27;20406;-77
2024/01/17 00:11:45;;;;;;;7.57;3.30;;;0.70;56.90;;;;;;5081966;28;20410;-76
2024/01/17 00:14:11;;;;;;;8.70;3.57;;;0.60;59.40;;;;;;5083764;28;20483;-77
2024/01/17 00:16:37;;;;;;;8.40;3.20;;;0.60;54.50;;;;;;5092556;28;20416;-78
2024/01/17 00:19:03;;;;;;;8.80;3.35;;;0.60;52.20;;;;;;5083376;28;20420;-77
2024/01/17 00:21:28;;;;;;;7.20;3.17;;;0.60;50.20;;;;;;5096358;28;20508;-77
2024/01/17 00:23:54;;;;;;;7.53;3.15;;;0.60;49.10;;;;;;5094871;28;20453;-77
2024/01/17 00:26:20;;;;;;;6.78;3.30;;;0.60;44.70;;;;;;5097860;28;20476;-77
2024/01/17 00:28:45;;;;;;;5.00;2.90;;;0.50;44.40;;;;;;5097281;28;20417;-77
2024/01/17 00:31:12;;;;;;;6.50;2.87;;;0.50;45.30;;;;;;5093816;28;20849;-77
2024/01/17 00:33:37;;;;;;;7.53;3.20;;;0.50;43.30;;;;;;5095247;28;20428;-77
2024/01/17 00:36:03;;;;;;;7.57;3.30;;;0.50;43.40;;;;;;5097709;28;20415;-77
2024/01/17 00:38:31;;;;;;;5.95;2.65;;;0.50;40.10;;;;;;5093981;28;20422;-77
2024/01/17 00:40:57;;;;;;;7.63;3.35;;;0.40;43.90;;;;;;5100108;28;20400;-77
2024/01/17 00:43:23;;;;;;;6.75;2.78;;;0.50;39.80;;;;;;5096755;28;20798;-77
2024/01/17 00:45:48;;;;;;;7.15;3.00;;;0.50;36.30;;;;;;5100048;28;20404;-77
2024/01/17 00:48:14;;;;;;;6.38;2.80;;;0.50;34.00;;;;;;5098387;28;20427;-77
2024/01/17 00:50:40;;;;;;;7.93;2.57;;;0.50;38.20;;;;;;5099197;28;20396;-77
2024/01/17 00:53:06;;;;;;;6.70;2.83;;;0.50;31.20;;;;;;5086053;28;20485;-77
2024/01/17 00:55:32;;;;;;;7.13;2.60;;;0.50;32.30;;;;;;5087742;28;20518;-77
2024/01/17 00:57:58;;;;;;;5.53;2.25;;;0.50;31.60;;;;;;5090279;28;20410;-77
2024/01/17 01:00:23;;;;;;;6.50;2.33;;;0.50;31.60;;;;;;5098572;28;20453;-77
2024/01/17 01:02:51;;;;;;;6.23;2.57;;;0.50;29.90;;;;;;5098966;28;20432;-77
2024/01/17 01:05:17;;;;;;;6.20;2.35;;;0.50;33.50;;;;;;5102402;28;20404;-77
2024/01/17 01:07:43;;;;;;;6.90;2.40;;;0.60;28.80;;;;;;5100151;28;20911;-77
2024/01/17 01:10:09;;;;;;;5.72;2.03;;;0.50;27.90;;;;;;5098588;28;20772;-77
2024/01/17 01:12:35;;;;;;;4.60;1.77;;;0.60;28.70;;;;;;5089669;28;20432;-77
2024/01/17 01:15:00;;;;;;;4.43;1.90;;;0.60;30.40;;;;;;5096975;28;20434;-77
2024/01/17 01:17:26;;;;;;;4.75;2.30;;;0.60;27.80;;;;;;5104323;28;20416;-76
2024/01/17 01:19:51;;;;;;;5.23;2.33;;;0.60;20.70;;;;;;5097168;28;20416;-77
2024/01/17 01:22:17;;;;;;;5.83;2.47;;;0.70;18.90;;;;;;5096851;28;20795;-77
2024/01/17 01:24:43;;;;;;;4.55;2.30;;;0.70;21.10;;;;;;5099931;28;20412;-77
2024/01/17 01:27:08;;;;;;;7.18;2.30;;;0.70;23.60;;;;;;5104373;28;20905;-76
2024/01/17 01:29:34;;;;;;;5.00;2.30;;;0.70;18.70;;;;;;5102079;28;20408;-76
2024/01/17 01:31:59;;;;;;;6.22;2.45;;;0.70;18.90;;;;;;5099313;28;20421;-77
2024/01/17 01:34:25;;;;;;;5.97;2.33;;;0.70;19.70;;;;;;5100523;28;20519;-77
2024/01/17 01:36:51;;;;;;;5.40;2.40;;;0.70;14.20;;;;;;5094772;28;20413;-77
2024/01/17 01:39:16;;;;;;;7.50;2.40;;;0.60;16.00;;;;;;5099385;28;20904;-77
2024/01/17 01:41:42;;;;;;;6.73;2.60;;;0.70;16.20;;;;;;5098041;28;20414;-77
2024/01/17 01:44:07;;;;;;;5.90;2.40;;;0.60;11.20;;;;;;5100370;28;20917;-76
2024/01/17 01:46:34;;;;;;;6.80;2.85;;;0.60;11.40;;;;;;5100376;28;20404;-76
2024/01/17 01:49:00;;;;;;;8.20;2.97;;;0.60;9.80;;;;;;5099324;28;20408;-76
2024/01/17 01:51:27;;;;;;;6.93;3.37;;;0.60;13.00;;;;;;5097060;28;20406;-77
2024/01/17 01:53:59;;;;;;;6.20;3.30;;;0.60;15.30;;;;;;5103278;28;20416;-78
2024/01/17 01:56:28;;;;;;;7.68;3.55;;;0.60;16.40;;;;;;5090148;28;20488;-78
2024/01/17 01:58:54;;;;;;;7.63;3.88;;;0.60;13.30;;;;;;5105576;28;20924;-78
2024/01/17 02:01:20;;;;;;;7.53;3.90;;;0.50;14.30;;;;;;5089825;28;20418;-77
2024/01/17 02:03:47;;;;;;;8.90;3.87;;;0.50;16.70;;;;;;5103650;28;20487;-77
2024/01/17 02:06:14;;;;;;;8.38;4.00;;;0.50;17.90;;;;;;5099389;28;20920;-78
2024/01/17 02:08:40;;;;;;;7.78;3.78;;;0.50;18.80;;;;;;5097672;28;20418;-77
2024/01/17 02:11:06;;;;;;;8.27;4.13;;;0.50;15.80;;;;;;5088970;28;20798;-77
2024/01/17 02:13:32;;;;;;;7.07;3.90;;;0.50;21.00;;;;;;5096157;28;20826;-77
2024/01/17 02:16:00;;;;;;;9.70;4.13;;;0.50;20.90;;;;;;5093017;28;20422;-77
2024/01/17 02:18:26;;;;;;;9.50;4.53;;;0.50;21.80;;;;;;5105461;28;20504;-77
2024/01/17 02:20:51;;;;;;;8.90;4.50;;;0.50;21.60;;;;;;5096266;28;20472;-77
2024/01/17 02:23:27;;;;;;;11.60;4.82;;;0.50;24.90;;;;;;5097944;28;20821;-77
2024/01/17 02:25:55;;;;;;;10.82;5.20;;;0.50;27.00;;;;;;5089200;28;20425;-77
2024/01/17 02:28:21;;;;;;;9.30;5.10;;;0.40;25.40;;;;;;5096456;28;20418;-77
2024/01/17 02:30:47;;;;;;;11.13;5.55;;;0.50;26.40;;;;;;5081682;28;20505;-77
2024/01/17 02:33:16;;;;;;;9.90;4.95;;;0.40;25.90;;;;;;5090969;28;20414;-77
2024/01/17 02:35:42;;;;;;;10.80;5.77;;;0.50;27.50;;;;;;5098068;28;20927;-76
2024/01/17 02:38:08;;;;;;;11.30;5.83;;;0.40;28.50;;;;;;5094336;28;20501;-77
2024/01/17 02:40:34;;;;;;;10.87;5.80;;;0.40;30.90;;;;;;5103356;28;20495;-76
2024/01/17 02:42:59;;;;;;;10.13;5.97;;;0.40;31.90;;;;;;5098086;28;20397;-77
2024/01/17 02:45:25;;;;;;;11.38;5.60;;;0.40;33.70;;;;;;5094266;28;20418;-77
2024/01/17 02:47:51;;;;;;;12.50;6.45;;;0.40;33.40;;;;;;5076186;28;20416;-77
2024/01/17 02:50:17;;;;;;;12.00;6.70;;;0.40;36.10;;;;;;5101494;28;20414;-77
2024/01/17 02:52:46;;;;;;;11.57;5.90;;;0.40;37.70;;;;;;5093958;28;20451;-77
2024/01/17 02:55:13;;;;;;;11.27;5.97;;;0.40;36.30;;;;;;5101196;28;20996;-77
2024/01/17 02:57:39;;;;;;;10.65;5.88;;;0.40;38.00;;;;;;5102127;28;20412;-77
2024/01/17 03:00:09;;;;;;;11.20;6.72;;;0.40;39.50;;;;;;5090229;28;20422;-77
2024/01/17 03:02:35;;;;;;;11.80;6.90;;;0.40;39.30;;;;;;5091669;28;20422;-77
2024/01/17 03:05:01;;;;;;;11.65;6.22;;;0.40;40.80;;;;;;5097125;28;20416;-77
2024/01/17 03:07:26;;;;;;;10.60;6.43;;;0.40;40.70;;;;;;5095451;28;20496;-78
2024/01/17 03:09:52;;;;;;;12.20;6.82;;;0.40;41.40;;;;;;5107060;28;20422;-77
2024/01/17 03:12:20;;;;;;;11.23;6.53;;;0.40;41.60;;;;;;5089280;28;20475;-77
2024/01/17 03:14:45;;;;;;;9.40;6.43;;;0.40;43.00;;;;;;5098104;28;20461;-77
2024/01/17 03:17:14;;;;;;;10.77;6.65;;;0.30;41.10;;;;;;5096529;28;20445;-77
2024/01/17 03:19:43;;;;;;;9.65;6.45;;;0.40;42.30;;;;;;5086059;28;20420;-77
2024/01/17 03:22:09;;;;;;;11.32;7.25;;;0.40;42.40;;;;;;5096812;28;20431;-78
2024/01/17 03:24:37;;;;;;;12.65;6.70;;;0.30;43.40;;;;;;5095218;28;20406;-77
2024/01/17 03:27:03;;;;;;;12.68;7.22;;;0.30;42.90;;;;;;5086223;28;20472;-78
2024/01/17 03:29:28;;;;;;;11.55;6.82;;;0.30;44.30;;;;;;5096752;28;20403;-77
2024/01/17 03:31:54;;;;;;;10.40;7.00;;;0.30;43.80;;;;;;5088976;28;20413;-78
2024/01/17 03:34:20;;;;;;;12.80;7.53;;;0.30;43.10;;;;;;5095474;28;20880;-77
2024/01/17 03:36:46;;;;;;;11.15;7.30;;;0.30;43.60;;;;;;5076967;28;20409;-78
2024/01/17 03:39:12;;;;;;;13.48;7.57;;;0.20;44.00;;;;;;5093050;28;20452;-78
2024/01/17 03:41:38;;;;;;;12.45;7.75;;;0.20;45.50;;;;;;5089692;28;20406;-77
2024/01/17 03:44:03;;;;;;;12.20;7.55;;;0.20;45.70;;;;;;5097062;28;20469;-77
2024/01/17 03:46:29;;;;;;;13.73;7.82;;;0.20;46.70;;;;;;5095194;28;20429;-78
2024/01/17 03:48:54;;;;;;;13.67;7.90;;;0.20;48.10;;;;;;5097242;28;20530;-77
2024/01/17 03:51:20;;;;;;;14.90;8.30;;;0.10;48.80;;;;;;5099794;28;20414;-77
2024/01/17 03:53:46;;;;;;;12.73;8.27;;;0.10;49.20;;;;;;5095283;28;20422;-77
2024/01/17 03:56:13;;;;;;;13.13;8.38;;;0.10;50.50;;;;;;5100608;28;20475;-77
2024/01/17 03:58:41;;;;;;;12.77;8.37;;;0.10;51.10;;;;;;5098874;28;20433;-77
2024/01/17 04:01:14;;;;;;;13.73;8.77;;;0.10;51.40;;;;;;5095692;28;20421;-77
2024/01/17 04:03:40;;;;;;;15.43;8.93;;;0.10;51.70;;;;;;5098017;28;20962;-77
2024/01/17 04:06:05;;;;;;;15.68;8.93;;;0.00;52.60;;;;;;5103083;28;20424;-77
2024/01/17 04:08:31;;;;;;;13.77;9.15;;;0.10;53.10;;;;;;5098359;28;20413;-77
2024/01/17 04:10:57;;;;;;;17.37;10.00;;;0.00;53.70;;;;;;5099463;28;20465;-77
2024/01/17 04:13:23;;;;;;;14.63;9.53;;;0.00;54.40;;;;;;5104234;28;20408;-78
2024/01/17 04:15:48;;;;;;;13.23;9.15;;;0.00;54.80;;;;;;5101623;28;20423;-78
2024/01/17 04:18:14;;;;;;;16.02;9.50;;;0.00;54.80;;;;;;5093614;28;20414;-78
2024/01/17 04:20:39;;;;;;;14.03;9.07;;;-0.10;54.30;;;;;;5085502;28;21020;-77
2024/01/17 04:23:06;;;;;;;15.60;9.23;;;-0.10;54.70;;;;;;5098543;28;20400;-77
2024/01/17 04:25:32;;;;;;;15.30;9.73;;;-0.10;55.40;;;;;;5091743;28;20408;-77
2024/01/17 04:27:58;;;;;;;15.25;9.40;;;-0.10;55.80;;;;;;5093228;28;20456;-77
2024/01/17 04:30:24;;;;;;;14.88;8.75;;;-0.20;55.70;;;;;;5088858;28;20444;-77
2024/01/17 04:32:49;;;;;;;12.93;9.15;;;-0.20;55.50;;;;;;5098798;28;20912;-77
2024/01/17 04:35:21;;;;;;;15.40;9.68;;;-0.20;56.20;;;;;;5096097;28;21600;-77
2024/01/17 04:37:47;;;;;;;13.98;9.38;;;-0.20;56.20;;;;;;5092240;28;20483;-78
2024/01/17 04:40:12;;;;;;;17.25;9.15;;;-0.20;56.70;;;;;;5091534;28;20420;-78
2024/01/17 04:42:39;;;;;;;14.85;9.25;;;-0.20;57.10;;;;;;5101450;28;20416;-77
2024/01/17 04:45:05;;;;;;;15.40;9.10;;;-0.20;57.30;;;;;;5102369;28;20472;-77
2024/01/17 04:47:31;;;;;;;15.98;9.93;;;-0.20;57.70;;;;;;5103684;28;20464;-76
2024/01/17 04:49:57;;;;;;;18.08;9.82;;;-0.20;56.70;;;;;;5095896;28;20455;-77
2024/01/17 04:52:23;;;;;;;14.63;9.48;;;-0.20;57.30;;;;;;5085085;28;20421;-77
2024/01/17 04:54:49;;;;;;;15.93;10.02;;;-0.10;57.60;;;;;;5087988;28;20495;-77
2024/01/17 04:57:15;;;;;;;14.50;9.60;;;-0.10;57.60;;;;;;5093811;28;20494;-77
2024/01/17 04:59:41;;;;;;;16.00;9.52;;;-0.10;57.40;;;;;;5100159;28;20414;-77
2024/01/17 05:02:06;;;;;;;15.57;9.85;;;-0.10;58.00;;;;;;5086936;28;20426;-77
2024/01/17 05:04:32;;;;;;;14.63;9.73;;;-0.10;57.90;;;;;;5097348;28;20457;-77
2024/01/17 05:06:58;;;;;;;15.50;9.77;;;-0.10;58.10;;;;;;5098213;28;21010;-76
2024/01/17 05:09:24;;;;;;;14.73;9.47;;;-0.10;58.30;;;;;;5099174;28;20404;-77
2024/01/17 05:11:49;;;;;;;16.33;10.70;;;-0.10;57.80;;;;;;5099602;28;20492;-77
2024/01/17 05:14:15;;;;;;;16.02;10.20;;;-0.10;57.90;;;;;;5090526;28;20439;-77
2024/01/17 05:16:41;;;;;;;14.63;9.67;;;-0.10;57.80;;;;;;5076509;28;20418;-77
2024/01/17 05:19:07;;;;;;;17.15;10.20;;;-0.10;57.30;;;;;;5086336;28;20419;-77
2024/01/17 05:21:32;;;;;;;16.47;9.87;;;-0.10;56.00;;;;;;5095716;28;20415;-77
2024/01/17 05:23:58;;;;;;;16.48;9.88;;;-0.10;57.00;;;;;;5088238;28;20567;-77
2024/01/17 05:26:24;;;;;;;14.75;9.80;;;-0.10;57.30;;;;;;5088044;28;20421;-77
2024/01/17 05:28:49;;;;;;;16.33;10.63;;;-0.20;56.80;;;;;;5089439;28;20425;-76
2024/01/17 05:31:15;;;;;;;18.63;10.47;;;-0.20;57.60;;;;;;5093784;28;20441;-77
2024/01/17 05:33:41;;;;;;;15.25;10.10;;;-0.20;57.00;;;;;;5090054;28;20440;-76
2024/01/17 05:36:07;;;;;;;16.17;10.07;;;-0.20;57.20;;;;;;5100238;28;20407;-76
2024/01/17 05:38:33;;;;;;;14.40;9.50;;;-0.20;57.60;;;;;;5087645;28;20428;-77
2024/01/17 05:40:59;;;;;;;14.23;10.03;;;-0.20;57.70;;;;;;5093812;28;20404;-77
2024/01/17 05:43:25;;;;;;;17.97;10.20;;;-0.20;58.40;;;;;;5098561;28;20416;-77
2024/01/17 05:45:51;;;;;;;16.80;10.67;;;-0.20;58.90;;;;;;5103411;28;20799;-77
2024/01/17 05:48:17;;;;;;;16.42;10.73;;;-0.20;58.70;;;;;;5096631;28;20448;-77
2024/01/17 05:50:44;;;;;;;16.77;10.53;;;-0.30;58.90;;;;;;5092026;28;20413;-77
2024/01/17 05:53:10;;;;;;;15.68;10.55;;;-0.30;59.40;;;;;;5097305;28;20927;-77
2024/01/17 05:55:36;;;;;;;13.98;10.00;;;-0.30;59.60;;;;;;5091404;28;20457;-77
2024/01/17 05:58:02;;;;;;;15.90;9.95;;;-0.30;60.20;;;;;;5093020;28;20401;-77
2024/01/17 06:00:28;;;;;;;15.33;10.27;;;-0.30;60.50;;;;;;5098536;28;20474;-77
2024/01/17 06:02:54;;;;;;;16.27;9.98;;;-0.30;60.90;;;;;;5099263;28;20425;-77
2024/01/17 06:05:22;;;;;;;16.40;10.53;;;-0.30;60.90;;;;;;5100773;28;20482;-77
2024/01/17 06:07:47;;;;;;;16.30;10.30;;;-0.40;60.50;;;;;;5099832;28;20466;-78
2024/01/17 06:10:13;;;;;;;17.00;10.03;;;-0.40;59.90;;;;;;5102197;28;20487;-77
2024/01/17 06:12:40;;;;;;;14.75;9.88;;;-0.40;60.50;;;;;;5089607;28;20426;-77
2024/01/17 06:15:06;;;;;;;14.80;9.80;;;-0.40;60.20;;;;;;5101170;28;20443;-77
2024/01/17 06:17:32;;;;;;;14.43;9.77;;;-0.40;60.60;;;;;;5090990;28;20418;-77
2024/01/17 06:19:58;;;;;;;14.00;9.57;;;-0.50;60.40;;;;;;5100049;28;20423;-77
2024/01/17 06:22:24;;;;;;;14.75;9.18;;;-0.50;60.50;;;;;;5095946;28;20425;-78
2024/01/17 06:24:49;;;;;;;15.20;9.27;;;-0.50;60.80;;;;;;5091599;28;20433;-77
2024/01/17 06:27:15;;;;;;;15.23;9.40;;;-0.50;60.90;;;;;;5092159;28;20422;-78
2024/01/17 06:29:45;;;;;;;16.02;9.60;;;-0.60;60.90;;;;;;5094853;28;20394;-78
2024/01/17 06:32:12;;;;;;;13.43;9.30;;;-0.60;61.60;;;;;;5088624;28;20437;-78
2024/01/17 06:34:38;;;;;;;13.85;9.23;;;-0.60;62.20;;;;;;5094346;28;20432;-79
2024/01/17 06:37:04;;;;;;;14.02;9.65;;;-0.60;62.50;;;;;;5094551;28;20471;-79
2024/01/17 06:39:31;;;;;;;15.82;9.90;;;-0.50;63.20;;;;;;5087492;28;20464;-81
2024/01/17 06:41:58;;;;;;;15.30;9.63;;;-0.60;62.70;;;;;;5099333;28;20416;-78
2024/01/17 06:44:23;;;;;;;15.15;9.30;;;-0.50;62.70;;;;;;5098491;28;20422;-78
2024/01/17 06:46:49;;;;;;;14.67;9.03;;;-0.50;62.70;;;;;;5103384;28;20405;-78
2024/01/17 06:49:14;;;;;;;12.23;8.43;;;-0.50;62.50;;;;;;5104171;28;20483;-77
2024/01/17 06:51:40;;;;;;;13.15;8.55;;;-0.50;62.40;;;;;;5105099;28;20449;-77
2024/01/17 06:54:06;;;;;;;13.87;8.97;;;-0.50;61.30;;;;;;5107938;28;20503;-78
2024/01/17 06:56:34;;;;;;;14.87;8.83;;;-0.50;60.40;;;;;;5105107;28;20392;-78
2024/01/17 06:58:59;;;;;;;13.38;8.98;;;-0.50;60.70;;;;;;5104389;27;20389;-78
2024/01/17 07:01:25;;;;;;;14.05;8.80;;;-0.50;61.00;;;;;;5093771;28;20482;-78
2024/01/17 07:03:50;;;;;;;12.93;8.52;;;-0.50;60.70;;;;;;5095247;28;20409;-77
2024/01/17 07:06:16;;;;;;;13.67;8.40;;;-0.50;61.20;;;;;;5103905;28;20914;-77
2024/01/17 07:08:42;;;;;;;13.32;8.75;;;-0.50;61.00;;;;;;5105609;28;20457;-78
2024/01/17 07:11:10;;;;;;;15.60;9.23;;;-0.50;61.00;;;;;;5101669;28;20404;-78
2024/01/17 07:13:38;;;;;;;13.48;7.97;;;-0.50;61.10;;;;;;5103403;28;20408;-77
2024/01/17 07:16:04;;;;;;;12.32;8.05;;;-0.50;60.90;;;;;;5103450;28;20445;-78
2024/01/17 07:18:30;;;;;;;15.13;8.95;;;-0.50;60.60;;;;;;5103570;28;20513;-77
2024/01/17 07:20:55;;;;;;;11.75;8.20;;;-0.50;60.90;;;;;;5093064;28;20412;-78
2024/01/17 07:23:21;;;;;;;13.27;8.52;;;-0.60;60.50;;;;;;5102059;28;20801;-77
2024/01/17 07:25:47;;;;;;;10.73;7.30;;;-0.60;60.00;;;;;;5102685;28;20396;-77
2024/01/17 07:28:14;;;;;;;12.87;8.07;;;-0.60;60.40;;;;;;5102461;28;20840;-77
2024/01/17 07:30:41;;;;;;;12.18;7.80;;;-0.60;59.70;;;;;;5102121;28;20487;-77
2024/01/17 07:33:07;;;;;;;14.60;8.30;;;-0.60;60.10;;;;;;5102507;28;20408;-78
2024/01/17 07:35:33;;;;;;;13.38;8.18;;;-0.60;59.40;;;;;;5101879;28;20424;-77
2024/01/17 07:37:59;;;;;;;11.73;7.68;;;-0.70;59.20;;;;;;5092962;28;20394;-77
2024/01/17 07:40:25;;;;;;;12.05;8.10;;;-0.70;59.30;;;;;;5104644;28;20405;-77
2024/01/17 07:42:51;;;;;;;12.63;7.78;;;-0.70;59.50;;;;;;5104520;28;20403;-77
2024/01/17 07:45:17;;;;;;;13.43;8.20;;;-0.70;59.20;;;;;;5099382;28;20406;-77
2024/01/17 07:47:43;;;;;;;13.95;7.68;;;-0.70;59.60;;;;;;5098764;28;20412;-77
2024/01/17 07:50:09;;;;;;;12.20;7.80;;;-0.70;60.00;;;;;;5104620;28;20902;-77
2024/01/17 07:52:35;;;;;;;12.77;7.73;;;-0.70;59.30;;;;;;5104248;28;20459;-77
2024/01/17 07:55:00;;;;;;;13.93;8.23;;;-0.80;59.80;;;;;;5104511;28;20771;-77
2024/01/17 07:57:26;;;;;;;14.50;8.18;;;-0.70;58.80;;;;;;5103848;28;20436;-77
2024/01/17 07:59:52;;;;;;;14.27;8.37;;;-0.70;59.00;;;;;;5097337;28;20422;-77
2024/01/17 08:02:17;;;;;;;12.37;8.17;;;-0.70;58.20;;;;;;5096737;28;20408;-77
2024/01/17 08:04:43;;;;;;;11.88;8.48;;;-0.70;58.60;;;;;;5080085;28;20410;-77
2024/01/17 08:07:09;;;;;;;13.38;8.60;;;-0.70;59.20;;;;;;5097382;28;20404;-77
2024/01/17 08:09:34;;;;;;;14.00;8.10;;;-0.70;58.50;;;;;;5102516;28;20408;-77
2024/01/17 08:12:00;;;;;;;14.53;8.37;;;-0.70;59.00;;;;;;5100564;28;20408;-77
2024/01/17 08:14:26;;;;;;;11.52;8.00;;;-0.70;58.50;;;;;;5101805;28;20432;-77
2024/01/17 08:16:52;;;;;;;13.07;8.40;;;-0.70;59.20;;;;;;5101651;28;20478;-77
2024/01/17 08:19:18;;;;;;;13.13;8.17;;;-0.70;59.40;;;;;;5101405;28;20479;-77
2024/01/17 08:21:46;;;;;;;13.68;8.30;;;-0.70;59.50;;;;;;5099348;28;20492;-77
2024/01/17 08:24:12;;;;;;;16.75;10.73;;;-0.70;59.70;;;;;;5100131;28;20456;-77
2024/01/17 08:26:42;;;;;;;12.60;8.20;;;-0.70;59.70;;;;;;5098956;28;20496;-77
2024/01/17 08:29:08;;;;;;;14.32;8.43;;;-0.60;59.50;;;;;;5101934;28;20428;-77
2024/01/17 08:31:34;;;;;;;13.70;8.65;;;-0.60;59.10;;;;;;5097277;28;20398;-77
2024/01/17 08:34:00;;;;;;;12.70;8.23;;;-0.60;58.70;;;;;;5101511;28;20489;-77
2024/01/17 08:36:30;;;;;;;12.50;8.40;;;-0.60;58.30;;;;;;5098086;28;20408;-77
2024/01/17 08:38:56;;;;;;;13.07;7.88;;;-0.60;58.10;;;;;;5094313;28;20400;-77
2024/01/17 08:41:21;;;;;;;17.17;9.45;;;-0.70;57.60;;;;;;5101513;28;20408;-76
2024/01/17 08:43:47;;;;;;;15.53;8.70;;;-0.60;57.60;;;;;;5102682;28;20411;-76
2024/01/17 08:46:14;;;;;;;12.25;8.40;;;-0.60;57.40;;;;;;5100589;28;20425;-77
2024/01/17 08:48:40;;;;;;;15.52;9.10;;;-0.60;57.40;;;;;;5086154;28;20921;-76
2024/01/17 08:51:08;;;;;;;14.30;8.88;;;-0.60;57.50;;;;;;5100766;28;20453;-77
2024/01/17 08:53:34;;;;;;;13.05;8.55;;;-0.60;56.90;;;;;;5103526;28;20433;-76
2024/01/17 08:56:01;;;;;;;13.48;8.55;;;-0.60;56.60;;;;;;5098743;28;20406;-77
2024/01/17 08:58:27;;;;;;;12.55;7.93;;;-0.60;56.00;;;;;;5084102;28;20758;-77
2024/01/17 09:00:53;;;;;;;15.50;8.45;;;-0.60;55.70;;;;;;5099073;28;20401;-77
2024/01/17 09:03:19;;;;;;;11.97;8.20;;;-0.60;56.10;;;;;;5102551;28;20416;-76
2024/01/17 09:05:44;;;;;;;15.90;8.45;;;-0.50;54.70;;;;;;5089414;28;20493;-77
2024/01/17 09:08:10;;;;;;;13.95;8.98;;;-0.60;54.60;;;;;;5102069;28;20396;-77
2024/01/17 09:10:36;;;;;;;12.97;8.23;;;-0.50;55.00;;;;;;5098079;28;20596;-77
2024/01/17 09:13:01;;;;;;;12.13;7.80;;;-0.50;55.10;;;;;;5101615;28;20404;-76
2024/01/17 09:15:27;;;;;;;12.70;8.23;;;-0.50;54.60;;;;;;5098042;28;20449;-77
2024/01/17 09:17:52;;;;;;;13.73;8.35;;;-0.40;54.00;;;;;;5101731;28;20396;-77
2024/01/17 09:20:18;;;;;;;14.03;8.97;;;-0.40;54.70;;;;;;5099341;28;20738;-77
2024/01/17 09:22:44;;;;;;;13.82;8.50;;;-0.40;55.10;;;;;;5094470;28;20473;-76
2024/01/17 09:25:10;;;;;;;13.82;8.73;;;-0.40;53.80;;;;;;5102429;28;20911;-76
2024/01/17 09:27:36;;;;;;;12.00;8.20;;;-0.30;53.50;;;;;;5105286;28;20446;-77
2024/01/17 09:30:02;;;;;;;14.93;8.65;;;-0.30;54.00;;;;;;5103334;28;20414;-77
2024/01/17 09:32:28;;;;;;;16.55;8.98;;;-0.20;53.80;;;;;;5105520;28;20400;-77
2024/01/17 09:34:54;;;;;;;12.57;8.02;;;-0.20;52.80;;;;;;5102124;28;20441;-77
2024/01/17 09:37:19;;;;;;;11.90;7.80;;;-0.20;52.30;;;;;;5099157;28;20776;-77
2024/01/17 09:39:45;;;;;;;11.25;8.20;;;-0.10;54.10;;;;;;5099639;28;20458;-76
2024/01/17 09:42:13;;;;;;;14.85;8.23;;;-0.10;52.20;;;;;;5106754;28;20485;-77
2024/01/17 09:44:39;;;;;;;13.33;8.57;;;-0.10;51.30;;;;;;5105440;28;20496;-77
2024/01/17 09:47:05;;;;;;;11.13;7.90;;;-0.10;50.10;;;;;;5107389;28;21074;-77
2024/01/17 09:49:32;;;;;;;12.65;8.32;;;-0.10;51.20;;;;;;5104559;28;20418;-77
2024/01/17 09:52:04;;;;;;;13.95;8.32;;;0.00;49.50;;;;;;5108728;28;20403;-77
2024/01/17 09:54:33;;;;;;;14.98;7.75;;;0.00;49.60;;;;;;5104521;28;20434;-77
2024/01/17 09:57:04;;;;;;;13.45;8.13;;;-0.10;48.00;;;;;;5108683;28;20401;-76
2024/01/17 09:59:33;;;;;;;15.83;8.57;;;-0.10;48.30;;;;;;5104007;28;20414;-76
2024/01/17 10:02:01;;;;;;;11.80;7.78;;;-0.10;46.20;;;;;;5108637;27;20420;-76
2024/01/17 10:04:26;;;;;;;13.65;8.07;;;-0.10;46.00;;;;;;5101233;28;20417;-76
2024/01/17 10:06:55;;;;;;;14.77;8.40;;;-0.10;42.70;;;;;;5100845;28;20404;-76
2024/01/17 10:09:24;;;;;;;12.32;8.23;;;-0.10;44.10;;;;;;5101795;28;20412;-77
2024/01/17 10:11:51;;;;;;;12.73;8.07;;;-0.10;42.00;;;;;;5106360;28;20403;-77
2024/01/17 10:14:17;;;;;;;13.02;8.13;;;-0.10;41.50;;;;;;5102114;28;20801;-76
2024/01/17 10:16:42;;;;;;;14.00;8.18;;;-0.10;44.00;;;;;;5104255;28;20517;-77
2024/01/17 10:19:08;;;;;;;10.85;7.78;;;-0.10;44.30;;;;;;5093678;28;20483;-77
2024/01/17 10:21:35;;;;;;;12.25;8.10;;;-0.10;41.30;;;;;;5096309;28;20689;-77
2024/01/17 10:24:01;;;;;;;14.35;8.10;;;-0.10;44.60;;;;;;5093634;28;20411;-77
2024/01/17 10:26:27;;;;;;;12.75;7.97;;;0.00;42.60;;;;;;5102306;28;21052;-76
2024/01/17 10:28:53;;;;;;;15.95;8.40;;;0.00;44.30;;;;;;5098082;28;20386;-77
2024/01/17 10:31:21;;;;;;;11.60;7.80;;;0.00;43.30;;;;;;5097281;28;20820;-77
2024/01/17 10:33:48;;;;;;;12.75;8.00;;;0.10;43.70;;;;;;5098001;28;20816;-76
2024/01/17 10:36:14;;;;;;;11.98;8.57;;;0.10;43.20;;;;;;5100789;28;20436;-77
2024/01/17 10:38:40;;;;;;;14.00;7.82;;;0.10;42.10;;;;;;5094638;28;20436;-77
2024/01/17 10:41:07;;;;;;;11.63;7.95;;;0.10;42.10;;;;;;5106928;28;20404;-77
2024/01/17 10:43:50;;;;;;;12.30;8.40;;;0.20;42.60;;;;;;5106002;28;20401;-76
2024/01/17 10:46:16;;;;;;;13.18;8.18;;;0.20;44.00;;;;;;5105016;28;20404;-76
2024/01/17 10:48:42;;;;;;;13.43;7.70;;;0.20;43.40;;;;;;5107912;28;20817;-77
2024/01/17 10:51:12;;;;;;;11.37;7.50;;;0.30;42.30;;;;;;5103217;28;20413;-77
2024/01/17 10:53:38;;;;;;;13.18;7.65;;;0.40;43.70;;;;;;5106552;28;20453;-77
2024/01/17 10:56:04;;;;;;;15.00;7.73;;;0.40;43.20;;;;;;5102486;28;20395;-76
2024/01/17 10:58:34;;;;;;;13.93;7.93;;;0.50;40.90;;;;;;5096909;28;20400;-77
2024/01/17 11:01:05;;;;;;;11.65;7.55;;;0.50;39.80;;;;;;5103734;28;20402;-77
2024/01/17 11:03:36;;;;;;;13.95;7.75;;;0.60;41.00;;;;;;5097202;28;20496;-77
2024/01/17 11:06:04;;;;;;;11.13;7.30;;;0.60;40.90;;;;;;5103041;28;20416;-77
2024/01/17 11:08:30;;;;;;;11.38;7.30;;;0.70;39.10;;;;;;5106886;27;20729;-77
2024/01/17 11:10:58;;;;;;;11.35;6.85;;;0.70;37.10;;;;;;5103514;28;20397;-77
2024/01/17 11:13:25;;;;;;;12.10;7.13;;;0.70;35.00;;;;;;5106460;28;20408;-77
2024/01/17 11:15:53;;;;;;;11.00;7.30;;;0.70;36.00;;;;;;5098552;28;20437;-77
2024/01/17 11:18:20;;;;;;;12.27;7.55;;;0.70;35.60;;;;;;5099011;28;20443;-77
2024/01/17 11:20:46;;;;;;;11.80;6.90;;;0.60;38.10;;;;;;5099923;28;20492;-76
2024/01/17 11:23:40;;;;;;;11.20;6.70;;;0.60;38.10;;;;;;5104076;28;20492;-77
2024/01/17 11:26:30;;;;;;;11.90;7.22;;;0.60;34.10;;;;;;5088250;28;20408;-77
2024/01/17 11:29:10;;;;;;;12.32;7.07;;;0.50;33.10;;;;;;5089908;28;20427;-77
2024/01/17 11:31:46;;;;;;;13.45;6.78;;;0.50;36.20;;;;;;5100084;28;21097;-77
2024/01/17 11:34:12;;;;;;;12.52;7.25;;;0.40;36.90;;;;;;5096765;28;20428;-77
2024/01/17 11:36:46;;;;;;;11.32;7.25;;;0.40;37.50;;;;;;5096387;28;20458;-77
2024/01/17 11:39:18;;;;;;;11.75;7.43;;;0.40;40.40;;;;;;5097547;28;20762;-77
2024/01/17 11:41:46;;;;;;;11.63;7.93;;;0.30;43.10;;;;;;5102171;28;20977;-77
2024/01/17 11:44:15;;;;;;;13.80;8.60;;;0.30;44.60;;;;;;5106829;28;20404;-77
2024/01/17 11:46:41;;;;;;;14.13;8.15;;;0.20;46.10;;;;;;5101175;28;20408;-77
2024/01/17 11:49:09;;;;;;;12.50;7.63;;;0.20;48.40;;;;;;5106449;28;20396;-77
2024/01/17 11:51:37;;;;;;;15.00;7.60;;;0.20;49.10;;;;;;5100199;28;20766;-77
2024/01/17 11:54:06;;;;;;;14.10;8.20;;;0.20;50.10;;;;;;5105443;28;20472;-77
2024/01/17 11:56:32;;;;;;;11.47;7.37;;;0.20;51.10;;;;;;5104119;28;20536;-77
2024/01/17 11:59:12;;;;;;;12.93;7.30;;;0.20;52.30;;;;;;5103837;28;20778;-77
2024/01/17 12:01:42;;;;;;;12.57;7.32;;;0.20;52.20;;;;;;5093760;28;20453;-77
2024/01/17 12:04:18;;;;;;;12.80;6.97;;;0.30;51.70;;;;;;5090275;28;20792;-77
2024/01/17 12:06:51;;;;;;;11.82;7.32;;;0.30;50.90;;;;;;5105715;28;20419;-77
2024/01/17 12:09:20;;;;;;;12.05;6.80;;;0.30;50.90;;;;;;5100837;28;20402;-76
2024/01/17 12:11:47;;;;;;;12.38;6.93;;;0.30;49.50;;;;;;5077398;28;20417;-77
2024/01/17 12:14:16;;;;;;;12.60;7.35;;;0.30;47.90;;;;;;5106629;28;20825;-77
2024/01/17 12:16:42;;;;;;;10.45;7.38;;;0.30;48.80;;;;;;5102675;28;20981;-77
2024/01/17 12:19:12;;;;;;;13.98;7.68;;;0.30;49.60;;;;;;5101311;28;20407;-77
2024/01/17 12:21:38;;;;;;;12.32;7.50;;;0.30;50.80;;;;;;5103484;28;20535;-77
2024/01/17 12:24:04;;;;;;;12.00;7.50;;;0.30;52.00;;;;;;5101804;28;20401;-77
2024/01/17 12:26:34;;;;;;;11.30;7.03;;;0.40;52.10;;;;;;5103283;28;20467;-77
2024/01/17 12:29:10;;;;;;;11.90;7.20;;;0.40;52.30;;;;;;5102581;28;20396;-77
2024/01/17 12:31:37;;;;;;;10.60;6.97;;;0.40;51.70;;;;;;5090932;28;20414;-77
2024/01/17 12:34:06;;;;;;;13.77;6.97;;;0.40;51.00;;;;;;5104016;28;20493;-77
2024/01/17 12:36:34;;;;;;;11.82;7.10;;;0.40;51.90;;;;;;5099577;27;20772;-77
2024/01/17 12:39:04;;;;;;;10.45;6.93;;;0.40;53.00;;;;;;5095134;28;20503;-77
2024/01/17 12:41:30;;;;;;;13.10;7.50;;;0.40;53.10;;;;;;5091660;28;20411;-77